Time;durP1;ratioP1;P1;durP2;ratioP2;P2;SDS_P1;SDS_P2;PMS_P1;PMS_P2;Temp;Humidity;BMP_temperature;BMP_pressure;BME280_temperature;BME280_humidity;BME280_pressure;Samples;Min_cycle;Max_cycle;Signal;HPM_P1;HPM_P2
2021/08/26 00:07:20;;;;;;;11.97;7.47;;;;;;;17.37;56.36;96541.31;5050185;28;20421;-70
2021/08/26 00:09:46;;;;;;;10.80;7.00;;;;;;;17.33;56.48;96536.41;5050732;28;20441;-69
2021/08/26 00:12:12;;;;;;;12.00;7.70;;;;;;;17.14;57.43;96530.19;5050404;28;20426;-70
2021/08/26 00:14:38;;;;;;;8.60;6.40;;;;;;;17.37;57.18;96533.34;5050040;28;20241;-69
2021/08/26 00:17:04;;;;;;;10.07;7.80;;;;;;;17.25;57.76;96530.56;5051026;28;20442;-69
2021/08/26 00:19:30;;;;;;;10.27;6.63;;;;;;;17.27;57.64;96521.38;5034048;28;20210;-70
2021/08/26 00:21:56;;;;;;;10.00;7.13;;;;;;;16.92;58.78;96513.75;5051265;28;20479;-69
2021/08/26 00:24:22;;;;;;;12.23;7.93;;;;;;;17.02;58.59;96503.56;5045653;28;20433;-69
2021/08/26 00:26:47;;;;;;;11.47;7.63;;;;;;;16.83;59.66;96507.09;5050987;28;20187;-69
2021/08/26 00:29:13;;;;;;;12.20;7.23;;;;;;;17.00;58.93;96499.50;5049396;28;20286;-70
2021/08/26 00:31:38;;;;;;;9.90;7.10;;;;;;;16.61;60.05;96499.44;5051018;28;20183;-70
2021/08/26 00:34:04;;;;;;;11.17;7.60;;;;;;;16.50;60.56;96508.00;5049545;28;20175;-69
2021/08/26 00:36:29;;;;;;;9.17;6.90;;;;;;;16.70;59.81;96503.47;5034346;28;20179;-70
2021/08/26 00:38:55;;;;;;;10.07;7.13;;;;;;;16.71;59.64;96509.56;5050227;28;20566;-69
2021/08/26 00:41:24;;;;;;;10.80;7.10;;;;;;;16.52;60.34;96506.78;5050611;28;20256;-70
2021/08/26 00:43:50;;;;;;;12.70;7.70;;;;;;;16.47;60.74;96508.41;5049738;28;20328;-70
2021/08/26 00:46:16;;;;;;;12.33;7.00;;;;;;;16.18;61.34;96513.13;5050451;28;20434;-69
2021/08/26 00:48:46;;;;;;;12.23;7.47;;;;;;;16.46;60.43;96512.88;5049824;28;20179;-70
2021/08/26 00:51:12;;;;;;;13.37;8.40;;;;;;;16.56;59.75;96504.50;5050254;28;20434;-70
2021/08/26 00:53:39;;;;;;;15.67;7.87;;;;;;;16.47;59.97;96503.91;5046711;28;20426;-69
2021/08/26 00:56:11;;;;;;;9.13;6.93;;;;;;;16.58;59.46;96502.47;5049804;28;20935;-69
2021/08/26 00:58:37;;;;;;;11.73;7.97;;;;;;;16.53;59.47;96497.00;5050453;28;20924;-70
2021/08/26 01:01:04;;;;;;;14.90;8.40;;;;;;;16.55;59.78;96495.78;5050375;28;20510;-69
2021/08/26 01:04:08;;;;;;;10.17;7.17;;;;;;;16.36;60.43;96493.97;5033931;28;20650;-70
2021/08/26 01:06:41;;;;;;;12.63;7.80;;;;;;;16.40;60.38;96495.19;5017756;28;20491;-70
2021/08/26 01:09:10;;;;;;;11.00;7.83;;;;;;;16.46;59.96;96482.97;5048662;28;20924;-69
2021/08/26 01:11:38;;;;;;;10.27;7.73;;;;;;;16.39;60.33;96473.22;5049518;28;20433;-71
2021/08/26 01:14:04;;;;;;;13.10;8.20;;;;;;;16.24;60.91;96475.31;5048816;28;20421;-70
2021/08/26 01:16:30;;;;;;;11.37;7.67;;;;;;;16.34;60.75;96473.03;5034718;28;20417;-70
2021/08/26 01:18:56;;;;;;;16.40;8.37;;;;;;;16.27;60.79;96477.50;5049020;28;20521;-69
2021/08/26 01:21:23;;;;;;;10.43;7.60;;;;;;;16.16;61.46;96473.69;5050120;28;20558;-70
2021/08/26 01:23:55;;;;;;;11.03;7.93;;;;;;;16.15;61.44;96476.50;5047257;28;20190;-70
2021/08/26 01:26:24;;;;;;;10.80;7.30;;;;;;;16.14;61.10;96470.44;5049813;28;20515;-69
2021/08/26 01:28:53;;;;;;;12.63;7.70;;;;;;;16.17;61.00;96471.84;5049814;28;20418;-69
2021/08/26 01:31:20;;;;;;;11.30;8.10;;;;;;;16.08;61.02;96471.25;5049186;28;20839;-69
2021/08/26 01:34:03;;;;;;;10.27;7.80;;;;;;;16.19;60.71;96475.09;5031782;28;20426;-69
2021/08/26 01:36:30;;;;;;;10.10;7.37;;;;;;;16.19;60.78;96477.75;5033762;28;20410;-69
2021/08/26 01:39:01;;;;;;;11.33;8.03;;;;;;;16.23;60.66;96469.19;5049935;28;20433;-69
2021/08/26 01:41:50;;;;;;;10.30;7.30;;;;;;;16.19;60.87;96472.47;5050116;28;20919;-70
2021/08/26 01:44:26;;;;;;;10.17;7.93;;;;;;;15.97;61.36;96468.22;5048919;28;20945;-69
2021/08/26 01:46:53;;;;;;;10.40;7.60;;;;;;;16.02;61.46;96464.16;5049173;28;20607;-69
2021/08/26 01:49:19;;;;;;;15.03;8.47;;;;;;;16.04;61.10;96462.91;5049028;28;20453;-69
2021/08/26 01:51:44;;;;;;;11.10;8.13;;;;;;;15.95;61.61;96464.16;5049396;28;20421;-70
2021/08/26 01:54:10;;;;;;;14.93;7.70;;;;;;;15.92;61.79;96462.75;5040179;28;20183;-69
2021/08/26 01:56:37;;;;;;;13.30;8.50;;;;;;;15.87;61.85;96462.53;5050009;28;20266;-70
2021/08/26 01:59:02;;;;;;;13.43;8.47;;;;;;;15.87;61.56;96464.38;5049505;28;20179;-69
2021/08/26 02:01:28;;;;;;;13.23;8.30;;;;;;;16.22;60.83;96461.47;5050038;28;20488;-69
2021/08/26 02:03:55;;;;;;;14.27;8.57;;;;;;;16.09;60.98;96468.41;5051462;28;20175;-69
2021/08/26 02:06:21;;;;;;;15.33;8.33;;;;;;;15.86;61.76;96468.03;5052493;28;20216;-69
2021/08/26 02:08:46;;;;;;;9.60;7.40;;;;;;;15.96;61.36;96465.78;5052785;28;21009;-69
2021/08/26 02:11:12;;;;;;;11.00;8.27;;;;;;;16.13;60.91;96469.59;5045675;28;20179;-69
2021/08/26 02:13:38;;;;;;;12.97;8.43;;;;;;;16.03;61.05;96471.84;5050888;28;20191;-70
2021/08/26 02:16:04;;;;;;;13.20;7.73;;;;;;;16.17;60.86;96463.91;5048419;28;20190;-68
2021/08/26 02:18:29;;;;;;;10.57;7.37;;;;;;;16.23;60.62;96463.09;5036667;28;20257;-69
2021/08/26 02:20:55;;;;;;;11.83;7.93;;;;;;;16.08;60.96;96465.94;5053056;28;20457;-68
2021/08/26 02:23:20;;;;;;;16.67;7.77;;;;;;;16.15;60.79;96458.00;5051682;28;20186;-69
2021/08/26 02:25:46;;;;;;;9.60;7.13;;;;;;;16.22;60.23;96456.19;5052975;28;20183;-69
2021/08/26 02:28:12;;;;;;;11.57;8.17;;;;;;;16.19;60.35;96454.75;5052806;28;20187;-70
2021/08/26 02:30:38;;;;;;;10.93;7.93;;;;;;;16.14;60.39;96444.00;5052290;28;20191;-69
2021/08/26 02:33:04;;;;;;;11.73;8.40;;;;;;;16.15;60.41;96440.34;5052967;28;20201;-68
2021/08/26 02:35:30;;;;;;;11.33;7.73;;;;;;;16.04;60.38;96444.41;5036128;28;21003;-69
2021/08/26 02:37:55;;;;;;;11.17;7.37;;;;;;;16.15;60.18;96444.81;5052894;28;20183;-68
2021/08/26 02:40:21;;;;;;;10.03;7.43;;;;;;;16.10;60.35;96440.97;5048734;28;20631;-69
2021/08/26 02:42:46;;;;;;;13.87;7.70;;;;;;;16.06;60.41;96439.75;5052435;28;20187;-68
2021/08/26 02:45:12;;;;;;;14.33;7.17;;;;;;;16.03;60.52;96431.41;5052174;28;20504;-70
2021/08/26 02:47:38;;;;;;;10.80;7.70;;;;;;;15.80;61.25;96422.06;5051968;28;20213;-71
2021/08/26 02:50:03;;;;;;;14.93;8.73;;;;;;;16.04;60.58;96422.47;5052810;28;20202;-69
2021/08/26 02:52:29;;;;;;;11.53;7.30;;;;;;;16.04;60.19;96417.19;5053113;28;20182;-70
2021/08/26 02:54:55;;;;;;;9.90;7.60;;;;;;;16.16;59.59;96414.72;5052029;28;20512;-69
2021/08/26 02:57:20;;;;;;;14.17;7.30;;;;;;;16.08;59.70;96411.28;5052705;28;20187;-69
2021/08/26 02:59:46;;;;;;;14.23;8.33;;;;;;;16.26;59.40;96407.16;5051478;28;20207;-70
2021/08/26 03:02:11;;;;;;;10.57;7.70;;;;;;;16.25;59.28;96397.63;5050626;28;20178;-69
2021/08/26 03:04:37;;;;;;;16.90;7.80;;;;;;;16.36;59.03;96391.69;5036629;28;20182;-70
2021/08/26 03:07:03;;;;;;;11.87;7.83;;;;;;;16.55;58.37;96389.16;5052407;28;20183;-69
2021/08/26 03:09:29;;;;;;;14.53;8.47;;;;;;;16.65;58.51;96384.22;5033213;28;20251;-70
2021/08/26 03:11:54;;;;;;;9.43;7.80;;;;;;;16.24;59.47;96377.50;5047407;28;20493;-69
2021/08/26 03:14:20;;;;;;;11.17;7.97;;;;;;;16.45;59.07;96376.38;5051243;28;20190;-70
2021/08/26 03:16:45;;;;;;;12.20;7.90;;;;;;;16.37;59.41;96377.44;5052199;28;20579;-70
2021/08/26 03:19:11;;;;;;;11.30;7.60;;;;;;;16.36;59.29;96373.19;5050635;28;20237;-69
2021/08/26 03:21:37;;;;;;;11.67;7.13;;;;;;;16.53;58.93;96367.41;5052630;28;20191;-69
2021/08/26 03:24:03;;;;;;;10.10;7.50;;;;;;;16.57;58.35;96363.31;5050142;28;20706;-69
2021/08/26 03:26:29;;;;;;;9.20;6.73;;;;;;;16.51;58.87;96364.16;5050286;28;20188;-69
2021/08/26 03:28:54;;;;;;;13.27;8.17;;;;;;;16.26;59.48;96367.50;5051811;28;20956;-70
2021/08/26 03:31:20;;;;;;;12.63;7.93;;;;;;;16.21;59.97;96369.97;5052017;28;20224;-69
2021/08/26 03:33:45;;;;;;;10.53;7.20;;;;;;;16.28;59.79;96371.59;5051114;28;20705;-69
2021/08/26 03:36:11;;;;;;;14.70;8.80;;;;;;;15.97;60.91;96365.16;5049828;28;20708;-69
2021/08/26 03:38:36;;;;;;;11.93;8.57;;;;;;;15.95;61.10;96372.47;5050029;28;20198;-70
2021/08/26 03:41:02;;;;;;;14.50;8.00;;;;;;;16.05;60.50;96368.59;5039235;28;20206;-69
2021/08/26 03:43:28;;;;;;;12.83;8.00;;;;;;;15.97;60.86;96383.66;5050858;28;20201;-69
2021/08/26 03:45:53;;;;;;;11.70;8.00;;;;;;;16.03;61.06;96392.56;5051200;28;20229;-69
2021/08/26 03:48:19;;;;;;;12.27;8.10;;;;;;;16.05;60.96;96392.38;5051433;28;20186;-70
2021/08/26 03:50:44;;;;;;;10.20;8.17;;;;;;;16.02;61.06;96390.16;5051623;28;20211;-69
2021/08/26 03:53:10;;;;;;;12.70;8.73;;;;;;;16.00;61.32;96395.66;5051228;28;20179;-68
2021/08/26 03:55:35;;;;;;;11.63;7.63;;;;;;;16.09;61.15;96383.00;5050405;28;20179;-69
2021/08/26 03:58:01;;;;;;;12.27;8.63;;;;;;;16.21;60.63;96385.84;5051475;28;20224;-69
2021/08/26 04:00:26;;;;;;;15.03;8.17;;;;;;;16.28;60.43;96376.88;5051537;28;20199;-69
2021/08/26 04:02:52;;;;;;;11.80;8.23;;;;;;;16.36;60.34;96378.47;5051857;28;20573;-69
2021/08/26 04:05:18;;;;;;;11.50;7.70;;;;;;;16.34;59.96;96375.22;5049675;28;20178;-69
2021/08/26 04:07:43;;;;;;;18.37;8.57;;;;;;;16.29;60.25;96375.03;5046026;28;20179;-69
2021/08/26 04:10:09;;;;;;;14.83;8.17;;;;;;;16.30;60.41;96371.34;5048699;28;20192;-69
2021/08/26 04:12:35;;;;;;;13.77;8.50;;;;;;;16.38;60.23;96371.13;5062196;28;20179;-70
2021/08/26 04:15:00;;;;;;;11.50;8.43;;;;;;;16.23;60.25;96363.44;5062885;28;20432;-69
2021/08/26 04:17:26;;;;;;;11.37;8.23;;;;;;;16.45;59.79;96367.66;5064351;28;20182;-69
2021/08/26 04:19:52;;;;;;;12.03;7.70;;;;;;;16.42;59.80;96372.31;5063618;28;20207;-70
2021/08/26 04:22:17;;;;;;;11.13;7.90;;;;;;;16.38;59.73;96370.31;5062129;28;20183;-70
2021/08/26 04:24:43;;;;;;;16.50;9.20;;;;;;;16.45;59.83;96370.28;5052762;28;20179;-70
2021/08/26 04:27:09;;;;;;;12.03;8.57;;;;;;;16.40;59.86;96365.63;5051165;28;20186;-70
2021/08/26 04:29:35;;;;;;;15.63;8.47;;;;;;;16.21;60.28;96369.97;5051461;28;20584;-70
2021/08/26 04:32:01;;;;;;;12.67;8.17;;;;;;;16.28;59.99;96370.75;5050679;28;20422;-69
2021/08/26 04:34:26;;;;;;;14.73;8.60;;;;;;;16.26;60.45;96367.50;5050350;28;21124;-71
2021/08/26 04:36:52;;;;;;;14.77;8.60;;;;;;;16.25;59.73;96361.41;5050500;28;20188;-69
2021/08/26 04:39:17;;;;;;;11.27;8.60;;;;;;;16.53;58.68;96362.09;5050415;28;20211;-69
2021/08/26 04:41:43;;;;;;;11.93;8.37;;;;;;;16.51;58.92;96366.78;5038068;28;20243;-70
2021/08/26 04:44:09;;;;;;;12.00;8.30;;;;;;;16.67;58.49;96355.72;5049967;28;20703;-69
2021/08/26 04:46:35;;;;;;;14.03;8.87;;;;;;;16.72;58.20;96350.63;5050556;28;20182;-69
2021/08/26 04:49:00;;;;;;;12.97;7.93;;;;;;;16.95;57.53;96349.31;5050644;28;20649;-69
2021/08/26 04:51:26;;;;;;;12.70;8.50;;;;;;;16.90;57.65;96351.72;5049759;28;20179;-69
2021/08/26 04:53:51;;;;;;;12.93;8.40;;;;;;;17.04;57.22;96348.00;5050189;28;20179;-69
2021/08/26 04:56:17;;;;;;;13.50;8.17;;;;;;;16.98;57.50;96348.88;5050406;28;20266;-69
2021/08/26 04:58:43;;;;;;;11.57;8.20;;;;;;;17.10;57.23;96350.84;5049883;28;20179;-69
2021/08/26 05:01:08;;;;;;;14.90;8.03;;;;;;;17.25;57.23;96348.69;5050638;28;20567;-69
2021/08/26 05:03:34;;;;;;;10.60;7.83;;;;;;;16.84;58.38;96349.94;5050272;28;20241;-69
2021/08/26 05:06:03;;;;;;;14.50;8.50;;;;;;;17.09;57.90;96349.22;5049256;28;20198;-69
2021/08/26 05:08:28;;;;;;;14.73;8.67;;;;;;;17.06;58.07;96357.56;5049563;28;20179;-69
2021/08/26 05:10:54;;;;;;;16.83;9.27;;;;;;;17.13;57.71;96353.84;5030369;28;20452;-69
2021/08/26 05:13:19;;;;;;;12.73;9.37;;;;;;;16.84;58.53;96357.88;5049579;28;20179;-69
2021/08/26 05:15:45;;;;;;;18.07;9.13;;;;;;;17.03;58.13;96366.75;5050618;28;20244;-69
2021/08/26 05:18:11;;;;;;;15.87;10.00;;;;;;;17.20;57.43;96372.34;5049538;28;20681;-69
2021/08/26 05:20:36;;;;;;;16.13;9.77;;;;;;;17.18;57.33;96363.78;5032487;28;20214;-69
2021/08/26 05:23:02;;;;;;;12.60;9.00;;;;;;;17.33;56.97;96368.75;5050446;28;20191;-69
2021/08/26 05:25:27;;;;;;;12.43;8.80;;;;;;;17.28;57.24;96358.03;5048851;28;20175;-69
2021/08/26 05:27:53;;;;;;;12.50;7.63;;;;;;;17.48;56.64;96355.22;5050846;28;20184;-69
2021/08/26 05:30:18;;;;;;;11.27;8.17;;;;;;;17.62;56.29;96355.91;5050119;28;20206;-69
2021/08/26 05:32:44;;;;;;;21.33;8.10;;;;;;;16.86;58.30;96350.56;5050629;28;20228;-70
2021/08/26 05:35:10;;;;;;;14.30;8.20;;;;;;;16.63;59.09;96351.91;5049618;28;20183;-70
2021/08/26 05:37:35;;;;;;;12.10;9.53;;;;;;;16.84;58.53;96352.59;5049902;28;20205;-70
2021/08/26 05:40:02;;;;;;;12.73;8.90;;;;;;;16.93;57.96;96359.25;5053873;28;20503;-69
2021/08/26 05:42:27;;;;;;;12.53;8.43;;;;;;;17.15;57.50;96365.03;5053716;28;20811;-69
2021/08/26 05:44:53;;;;;;;12.40;8.83;;;;;;;17.11;57.59;96363.03;5052730;28;20424;-70
2021/08/26 05:47:18;;;;;;;19.90;8.30;;;;;;;17.40;56.79;96371.38;5037727;28;20753;-69
2021/08/26 05:49:44;;;;;;;15.53;8.93;;;;;;;17.46;56.77;96371.31;5044994;28;20196;-69
2021/08/26 05:52:10;;;;;;;16.67;8.13;;;;;;;17.58;56.50;96374.06;5047898;28;20179;-70
2021/08/26 05:54:35;;;;;;;10.50;7.70;;;;;;;17.40;57.12;96366.91;5052693;28;20207;-69
2021/08/26 05:57:03;;;;;;;13.13;8.97;;;;;;;17.80;56.07;96376.31;5053886;28;20179;-68
2021/08/26 05:59:28;;;;;;;27.30;11.63;;;;;;;17.85;56.06;96384.44;5053184;28;20329;-70
2021/08/26 06:01:54;;;;;;;19.77;9.60;;;;;;;18.00;55.44;96380.66;5053281;28;20451;-70
2021/08/26 06:04:20;;;;;;;43.73;16.57;;;;;;;18.12;55.17;96370.94;5052287;28;20186;-69
2021/08/26 06:06:45;;;;;;;28.83;12.53;;;;;;;18.11;55.04;96374.63;5053696;28;20178;-69
2021/08/26 06:09:11;;;;;;;19.50;8.10;;;;;;;17.87;55.32;96378.91;5053456;28;20238;-69
2021/08/26 06:11:36;;;;;;;71.37;24.63;;;;;;;18.20;54.77;96370.63;5052571;28;20179;-70
2021/08/26 06:14:02;;;;;;;53.03;19.07;;;;;;;18.26;54.63;96368.94;5048202;28;20174;-69
2021/08/26 06:16:27;;;;;;;84.37;24.80;;;;;;;18.23;54.44;96367.56;5053092;28;20183;-69
2021/08/26 06:18:53;;;;;;;111.40;32.90;;;;;;;18.32;54.24;96372.56;5053155;28;20202;-69
2021/08/26 06:21:19;;;;;;;21.37;10.20;;;;;;;17.98;55.57;96375.56;5038812;28;20210;-69
2021/08/26 06:23:44;;;;;;;33.67;13.47;;;;;;;18.38;54.53;96376.97;5051895;28;20232;-70
2021/08/26 06:26:10;;;;;;;14.00;8.70;;;;;;;18.43;53.79;96385.06;5053122;28;20178;-69
2021/08/26 06:28:36;;;;;;;13.20;7.50;;;;;;;18.42;53.95;96394.06;5051895;28;20599;-69
2021/08/26 06:31:01;;;;;;;12.30;8.27;;;;;;;18.40;53.91;96394.28;5051927;28;20202;-69
2021/08/26 06:33:27;;;;;;;13.23;8.30;;;;;;;18.16;54.22;96395.19;5052811;28;20269;-70
2021/08/26 06:35:53;;;;;;;14.93;8.90;;;;;;;17.92;55.03;96392.31;5052868;28;20190;-70
2021/08/26 06:38:18;;;;;;;11.70;8.33;;;;;;;17.87;55.25;96395.63;5052694;28;20191;-69
2021/08/26 06:40:44;;;;;;;13.50;7.10;;;;;;;17.95;55.21;96387.38;5051810;28;20294;-69
2021/08/26 06:43:10;;;;;;;16.63;7.47;;;;;;;17.80;55.35;96389.56;5052986;28;20576;-70
2021/08/26 06:45:35;;;;;;;14.93;9.33;;;;;;;17.74;55.45;96393.91;5051708;28;20180;-70
2021/08/26 06:48:01;;;;;;;11.57;7.80;;;;;;;18.06;54.96;96398.31;5053194;28;20179;-71
2021/08/26 06:50:27;;;;;;;13.37;7.90;;;;;;;18.22;54.50;96394.28;5035420;28;20227;-70
2021/08/26 06:52:52;;;;;;;9.97;7.63;;;;;;;18.10;54.83;96396.88;5052837;28;20190;-69
2021/08/26 06:55:18;;;;;;;13.97;8.00;;;;;;;18.09;55.09;96395.25;5051734;28;20273;-70
2021/08/26 06:57:43;;;;;;;15.27;7.60;;;;;;;17.86;55.63;96394.00;5052718;28;20183;-70
2021/08/26 07:00:09;;;;;;;15.53;7.60;;;;;;;18.02;55.25;96400.59;5051394;28;20566;-70
2021/08/26 07:02:35;;;;;;;11.93;7.60;;;;;;;18.18;54.82;96393.91;5053088;28;20172;-70
2021/08/26 07:05:02;;;;;;;9.50;7.23;;;;;;;18.24;54.77;96397.53;5052194;28;20444;-70
2021/08/26 07:07:27;;;;;;;10.90;8.10;;;;;;;18.28;54.71;96398.72;5052837;28;20182;-71
2021/08/26 07:09:53;;;;;;;12.10;8.57;;;;;;;18.02;55.48;96394.50;5052059;28;20429;-70
2021/08/26 07:12:18;;;;;;;11.97;8.13;;;;;;;17.97;55.86;96397.78;5044528;28;20206;-70
2021/08/26 07:14:44;;;;;;;13.47;8.90;;;;;;;17.83;56.16;96386.50;5052095;28;20183;-70
2021/08/26 07:17:10;;;;;;;12.93;8.80;;;;;;;17.90;56.19;96381.13;5051378;28;20183;-70
2021/08/26 07:19:35;;;;;;;14.93;10.03;;;;;;;17.81;56.53;96388.53;5046348;28;20207;-69
2021/08/26 07:22:01;;;;;;;17.00;10.83;;;;;;;17.66;57.04;96384.38;5044488;28;20179;-70
2021/08/26 07:24:26;;;;;;;21.40;11.30;;;;;;;17.84;56.48;96376.69;5051700;28;20183;-70
2021/08/26 07:26:52;;;;;;;53.43;19.10;;;;;;;17.95;56.54;96376.78;5051798;28;20179;-70
2021/08/26 07:29:18;;;;;;;23.67;12.43;;;;;;;18.03;56.29;96370.44;5051924;28;20213;-69
2021/08/26 07:31:45;;;;;;;18.10;11.87;;;;;;;18.02;56.42;96375.97;5052660;28;20179;-69
2021/08/26 07:34:11;;;;;;;33.17;14.37;;;;;;;18.19;56.20;96365.56;5042995;28;20565;-71
2021/08/26 07:36:37;;;;;;;25.37;14.27;;;;;;;18.11;56.27;96372.78;5052533;28;20468;-70
2021/08/26 07:39:03;;;;;;;23.13;14.07;;;;;;;18.02;56.92;96379.41;5050621;28;20465;-69
2021/08/26 07:41:30;;;;;;;15.57;10.97;;;;;;;18.30;56.07;96374.59;5035646;28;20190;-70
2021/08/26 07:43:58;;;;;;;17.90;10.80;;;;;;;18.41;56.05;96372.03;5051410;28;20418;-71
2021/08/26 07:46:24;;;;;;;37.10;14.73;;;;;;;18.30;56.07;96372.78;5051922;28;20481;-72
2021/08/26 07:48:50;;;;;;;55.70;18.23;;;;;;;18.38;55.97;96366.38;5051293;28;20425;-72
2021/08/26 07:51:15;;;;;;;26.43;10.90;;;;;;;18.43;55.53;96366.50;5037518;28;20506;-69
2021/08/26 07:53:41;;;;;;;19.97;11.43;;;;;;;18.38;55.73;96371.69;5050966;28;20186;-70
2021/08/26 07:56:07;;;;;;;14.50;11.37;;;;;;;18.52;55.55;96370.50;5051510;28;20187;-72
2021/08/26 07:58:32;;;;;;;15.93;10.80;;;;;;;18.61;55.14;96362.22;5051737;28;20264;-70
2021/08/26 08:00:59;;;;;;;15.80;11.30;;;;;;;18.78;55.17;96357.09;5050816;28;20207;-70
2021/08/26 08:03:25;;;;;;;15.30;10.07;;;;;;;18.80;54.89;96357.66;5051360;28;20187;-71
2021/08/26 08:05:50;;;;;;;21.50;11.47;;;;;;;18.34;55.78;96360.69;5052333;28;20510;-70
2021/08/26 08:08:16;;;;;;;20.60;10.17;;;;;;;18.38;55.56;96356.56;5050638;28;20179;-70
2021/08/26 08:10:42;;;;;;;18.77;10.10;;;;;;;18.72;54.90;96362.25;5051391;28;20222;-71
2021/08/26 08:13:07;;;;;;;20.83;10.00;;;;;;;18.93;54.66;96356.66;5050812;28;20207;-69
2021/08/26 08:15:33;;;;;;;17.33;10.37;;;;;;;18.36;56.43;96366.56;5050688;28;20224;-70
2021/08/26 08:17:59;;;;;;;17.17;9.40;;;;;;;18.27;56.65;96363.41;5051787;28;20625;-70
2021/08/26 08:20:24;;;;;;;16.43;9.90;;;;;;;18.48;56.86;96360.53;5035643;28;20214;-70
2021/08/26 08:22:50;;;;;;;15.93;9.60;;;;;;;18.66;56.37;96363.16;5049351;28;20183;-71
2021/08/26 08:25:16;;;;;;;13.87;9.30;;;;;;;18.31;57.34;96365.63;5048262;28;20175;-69
2021/08/26 08:27:41;;;;;;;15.87;9.43;;;;;;;18.08;57.98;96370.56;5049259;28;20197;-70
2021/08/26 08:30:07;;;;;;;13.30;8.87;;;;;;;18.21;58.12;96372.25;5051354;28;20214;-69
2021/08/26 08:32:33;;;;;;;21.50;9.37;;;;;;;18.34;58.19;96375.78;5050948;28;20179;-69
2021/08/26 08:34:59;;;;;;;13.90;10.50;;;;;;;17.76;59.68;96372.50;5051532;28;20534;-71
2021/08/26 08:37:25;;;;;;;16.50;10.97;;;;;;;17.82;59.54;96368.97;5043423;28;20662;-70
2021/08/26 08:39:50;;;;;;;20.83;14.20;;;;;;;17.82;59.84;96374.25;5050648;28;20210;-70
2021/08/26 08:42:20;;;;;;;18.73;13.43;;;;;;;17.09;63.12;96365.88;5050523;28;20434;-68
2021/08/26 08:44:46;;;;;;;17.70;13.53;;;;;;;17.16;64.56;96377.25;5050573;28;20175;-70
2021/08/26 08:47:12;;;;;;;17.00;13.23;;;;;;;17.41;64.20;96370.34;5050097;28;20865;-67
2021/08/26 08:49:40;;;;;;;21.77;12.90;;;;;;;17.22;65.91;96372.94;5041376;28;20193;-72
2021/08/26 08:52:06;;;;;;;20.77;13.77;;;;;;;17.18;67.13;96377.84;5044168;28;20178;-68
2021/08/26 08:54:31;;;;;;;17.17;13.73;;;;;;;16.96;68.52;96381.84;5050366;28;20471;-70
2021/08/26 08:56:57;;;;;;;17.00;14.37;;;;;;;17.19;68.44;96374.19;5051027;28;20425;-70
2021/08/26 08:59:22;;;;;;;29.87;16.70;;;;;;;16.64;69.62;96379.16;5050734;28;20294;-70
2021/08/26 09:01:52;;;;;;;22.17;16.80;;;;;;;16.73;70.50;96376.06;5051130;28;20180;-71
2021/08/26 09:04:18;;;;;;;23.87;17.00;;;;;;;16.86;70.71;96387.59;5049099;28;20263;-70
2021/08/26 09:06:43;;;;;;;25.57;18.27;;;;;;;16.90;70.80;96386.13;5042078;28;20932;-71
2021/08/26 09:09:10;;;;;;;23.00;17.30;;;;;;;17.22;69.88;96380.88;5048984;28;20190;-72
2021/08/26 09:11:37;;;;;;;25.13;19.10;;;;;;;17.31;69.30;96379.59;5051666;28;20190;-69
2021/08/26 09:14:10;;;;;;;23.27;17.13;;;;;;;16.97;70.11;96386.94;5054152;28;20415;-71
2021/08/26 09:16:38;;;;;;;28.43;17.77;;;;;;;16.82;71.29;96381.09;5040825;28;20425;-71
2021/08/26 09:19:24;;;;;;;35.00;20.17;;;;;;;17.20;71.05;96380.28;5053055;28;20448;-70
2021/08/26 09:21:50;;;;;;;43.27;20.80;;;;;;;16.87;71.78;96376.78;5042700;28;20428;-73
2021/08/26 09:24:16;;;;;;;32.17;19.60;;;;;;;17.21;72.04;96384.56;5054196;28;20448;-71
2021/08/26 09:26:42;;;;;;;20.03;17.03;;;;;;;16.97;71.60;96373.72;5053609;28;20429;-71
2021/08/26 09:29:10;;;;;;;25.83;17.07;;;;;;;17.13;71.78;96371.59;5054048;28;20262;-70
2021/08/26 09:31:36;;;;;;;23.90;17.70;;;;;;;17.34;70.77;96378.34;5054835;28;20879;-70
2021/08/26 09:34:13;;;;;;;25.73;18.23;;;;;;;17.31;72.11;96378.78;5052693;28;20792;-71
2021/08/26 09:36:48;;;;;;;50.43;24.93;;;;;;;16.89;74.00;96377.41;5041603;28;20421;-72
2021/08/26 09:39:18;;;;;;;32.23;19.00;;;;;;;17.29;72.29;96381.63;5053055;28;20432;-71
2021/08/26 09:42:06;;;;;;;21.10;16.17;;;;;;;17.11;73.09;96378.94;5054569;28;20426;-71
2021/08/26 09:44:36;;;;;;;20.17;16.77;;;;;;;17.34;72.22;96387.09;5038219;28;20558;-71
2021/08/26 09:47:06;;;;;;;19.93;15.57;;;;;;;17.20;72.18;96394.31;5054017;28;20904;-72
2021/08/26 09:49:40;;;;;;;20.43;17.17;;;;;;;17.36;72.23;96376.28;5055683;28;20430;-70
2021/08/26 09:52:16;;;;;;;21.83;15.40;;;;;;;17.12;72.90;96388.50;5060711;28;20429;-69
2021/08/26 09:54:44;;;;;;;15.20;12.60;;;;;;;17.22;72.50;96391.47;5054090;28;20559;-72
2021/08/26 09:57:28;;;;;;;11.80;10.60;;;;;;;17.26;72.36;96397.97;5053452;28;20417;-71
2021/08/26 10:00:00;;;;;;;14.20;11.13;;;;;;;17.25;72.35;96393.69;5054275;28;20485;-70
2021/08/26 10:02:30;;;;;;;13.07;10.00;;;;;;;16.82;74.09;96383.75;5053778;28;20559;-70
2021/08/26 10:04:56;;;;;;;12.13;10.13;;;;;;;16.97;73.17;96384.31;5053470;28;20420;-71
2021/08/26 10:07:24;;;;;;;13.17;10.47;;;;;;;16.99;73.36;96386.72;5044693;28;20418;-71
2021/08/26 10:09:50;;;;;;;11.87;10.00;;;;;;;16.78;74.47;96401.06;5053713;28;20437;-71
2021/08/26 10:12:17;;;;;;;9.70;8.13;;;;;;;16.56;75.05;96406.66;5052950;28;20761;-70
2021/08/26 10:14:47;;;;;;;12.93;9.73;;;;;;;16.67;74.86;96406.00;5052986;28;20179;-71
2021/08/26 10:17:14;;;;;;;9.67;7.20;;;;;;;16.24;75.38;96398.66;5052548;28;20454;-67
2021/08/26 10:19:40;;;;;;;12.40;8.70;;;;;;;16.23;76.83;96404.94;5039477;28;20541;-72
2021/08/26 10:22:07;;;;;;;7.73;6.97;;;;;;;16.28;76.98;96402.47;5066662;28;20452;-69
2021/08/26 10:24:33;;;;;;;7.33;6.63;;;;;;;16.51;74.65;96406.47;5052922;28;20464;-70
2021/08/26 10:27:19;;;;;;;6.70;5.40;;;;;;;16.11;76.23;96424.09;5051457;28;20844;-69
2021/08/26 10:29:47;;;;;;;5.17;4.67;;;;;;;16.46;75.14;96408.94;5054020;28;20261;-70
2021/08/26 10:32:24;;;;;;;4.50;4.10;;;;;;;16.31;75.80;96407.34;5054020;28;20425;-70
2021/08/26 10:35:02;;;;;;;5.87;3.90;;;;;;;16.31;75.76;96403.91;5052901;28;20427;-70
2021/08/26 10:37:28;;;;;;;4.60;4.20;;;;;;;16.13;74.98;96419.38;5053928;28;20482;-71
2021/08/26 10:39:54;;;;;;;5.40;4.50;;;;;;;16.13;75.67;96411.47;5054800;28;20453;-70
2021/08/26 10:42:19;;;;;;;4.30;3.90;;;;;;;16.16;75.77;96401.50;5053671;28;20271;-70
2021/08/26 10:45:06;;;;;;;4.13;3.43;;;;;;;15.93;75.95;96418.63;5051971;28;20191;-71
2021/08/26 10:47:50;;;;;;;4.90;4.40;;;;;;;15.90;76.31;96405.81;5038410;28;20341;-71
2021/08/26 10:50:24;;;;;;;5.80;3.30;;;;;;;16.02;75.36;96404.16;5039187;28;20901;-70
2021/08/26 10:53:00;;;;;;;3.37;3.17;;;;;;;16.35;74.67;96403.28;5053339;28;20414;-70
2021/08/26 10:55:32;;;;;;;4.33;3.93;;;;;;;16.36;74.17;96404.91;5050403;28;21136;-69
2021/08/26 10:58:16;;;;;;;5.00;4.57;;;;;;;16.66;72.47;96404.38;5053384;28;20520;-68
2021/08/26 11:00:43;;;;;;;5.57;5.07;;;;;;;17.02;70.33;96402.19;5040514;28;20469;-67
2021/08/26 11:03:09;;;;;;;5.80;5.13;;;;;;;17.47;70.96;96398.63;5043902;28;20434;-69
2021/08/26 11:05:39;;;;;;;8.20;6.00;;;;;;;17.55;68.15;96401.00;5052974;28;20491;-69
2021/08/26 11:08:28;;;;;;;7.23;5.23;;;;;;;18.02;66.64;96397.16;5052864;28;20425;-68
2021/08/26 11:10:55;;;;;;;7.03;6.30;;;;;;;17.89;64.74;96406.00;5053888;28;20440;-69
2021/08/26 11:13:28;;;;;;;7.20;5.83;;;;;;;18.28;64.28;96385.44;5052863;28;20835;-68
2021/08/26 11:15:55;;;;;;;10.80;6.23;;;;;;;18.60;62.75;96395.88;5052103;28;20975;-67
2021/08/26 11:18:30;;;;;;;11.23;6.10;;;;;;;18.70;61.80;96392.69;5051793;28;20536;-69
2021/08/26 11:20:57;;;;;;;11.47;6.40;;;;;;;18.78;59.89;96383.63;5038664;28;20568;-70
2021/08/26 11:23:46;;;;;;;7.60;6.03;;;;;;;19.33;59.71;96382.66;5047133;28;20461;-68
2021/08/26 11:26:48;;;;;;;7.70;5.37;;;;;;;20.13;55.68;96369.06;5046950;28;20531;-69
2021/08/26 11:29:17;;;;;;;7.53;5.40;;;;;;;19.87;55.74;96365.84;5052333;28;20460;-70
2021/08/26 11:31:55;;;;;;;9.73;6.17;;;;;;;19.64;54.60;96364.81;5051650;28;21002;-69